Time;durP1;ratioP1;P1;durP2;ratioP2;P2;SDS_P1;SDS_P2;PMS_P1;PMS_P2;Temp;Humidity;BMP_temperature;BMP_pressure;BME280_temperature;BME280_humidity;BME280_pressure;Samples;Min_cycle;Max_cycle;Signal;HPM_P1;HPM_P2
2023/02/08 00:00:15;;;;;;;1999.90;999.90;;;;;;;;;;4956253;29;20445;-76
2023/02/08 00:03:00;;;;;;;1999.90;999.90;;;;;;;;;;4956136;29;20510;-72
2023/02/08 00:05:45;;;;;;;1999.90;999.90;;;;;;;;;;4955901;29;20469;-74
2023/02/08 00:08:30;;;;;;;1999.90;999.90;;;;;;;;;;4954275;29;20888;-75
2023/02/08 00:11:15;;;;;;;1999.90;999.90;;;;;;;;;;4955479;29;20614;-75
2023/02/08 00:14:00;;;;;;;1999.90;999.90;;;;;;;;;;4955024;28;20535;-75
2023/02/08 00:16:46;;;;;;;1999.90;999.90;;;;;;;;;;4952739;29;20537;-75
2023/02/08 00:19:31;;;;;;;1999.90;999.90;;;;;;;;;;4955542;29;20451;-75
2023/02/08 00:22:16;;;;;;;1999.90;999.90;;;;;;;;;;4955816;29;20412;-76
2023/02/08 00:25:01;;;;;;;1999.90;999.90;;;;;;;;;;4955284;29;20424;-76
2023/02/08 00:27:46;;;;;;;1999.90;999.90;;;;;;;;;;4955729;29;20560;-76
2023/02/08 00:30:31;;;;;;;1999.90;999.90;;;;;;;;;;4952330;28;20584;-76
2023/02/08 00:33:18;;;;;;;1999.90;999.90;;;;;;;;;;4951740;29;20465;-76
2023/02/08 00:36:04;;;;;;;1999.90;999.90;;;;;;;;;;4952317;29;20446;-75
2023/02/08 00:38:49;;;;;;;1999.90;999.90;;;;;;;;;;4955303;29;20421;-74
2023/02/08 00:41:34;;;;;;;1999.90;999.90;;;;;;;;;;4952520;29;20423;-74
2023/02/08 00:44:20;;;;;;;1999.90;999.90;;;;;;;;;;4951330;29;20508;-72
2023/02/08 00:47:05;;;;;;;1999.90;999.90;;;;;;;;;;4951968;29;21014;-75
2023/02/08 00:49:51;;;;;;;1999.90;999.90;;;;;;;;;;4955134;29;21032;-76
2023/02/08 00:52:37;;;;;;;1999.90;999.90;;;;;;;;;;4955250;29;20432;-75
2023/02/08 00:55:21;;;;;;;1999.90;999.90;;;;;;;;;;4953426;29;20417;-75
2023/02/08 00:58:06;;;;;;;1999.90;999.90;;;;;;;;;;4955172;29;20209;-75
2023/02/08 01:00:52;;;;;;;1999.90;999.90;;;;;;;;;;4954847;29;20496;-74
2023/02/08 01:03:38;;;;;;;1999.90;999.90;;;;;;;;;;4954489;29;20509;-75
2023/02/08 01:06:25;;;;;;;1999.90;999.90;;;;;;;;;;4955000;29;20423;-74
2023/02/08 01:09:10;;;;;;;1999.90;999.90;;;;;;;;;;4954599;29;20505;-75
2023/02/08 01:11:55;;;;;;;1999.90;999.90;;;;;;;;;;4954511;29;20431;-75
2023/02/08 01:14:41;;;;;;;1999.90;999.90;;;;;;;;;;4953793;29;20535;-75
2023/02/08 01:17:26;;;;;;;1999.90;999.90;;;;;;;;;;4952531;29;20426;-75
2023/02/08 01:20:11;;;;;;;1999.90;999.90;;;;;;;;;;4953734;29;21044;-75
2023/02/08 01:22:58;;;;;;;1999.90;999.90;;;;;;;;;;4951126;29;22145;-72
2023/02/08 01:25:43;;;;;;;1999.90;999.90;;;;;;;;;;4952410;28;20450;-73
2023/02/08 01:28:28;;;;;;;1999.90;999.90;;;;;;;;;;4954890;29;20466;-74
2023/02/08 01:31:14;;;;;;;1999.90;999.90;;;;;;;;;;4953222;29;21061;-76
2023/02/08 01:34:00;;;;;;;1999.90;999.90;;;;;;;;;;4953490;29;20566;-74
2023/02/08 01:36:45;;;;;;;1999.90;999.90;;;;;;;;;;4954020;29;20763;-73
2023/02/08 01:39:32;;;;;;;1999.90;999.90;;;;;;;;;;4952301;29;20445;-75
2023/02/08 01:42:18;;;;;;;1999.90;999.90;;;;;;;;;;4953921;29;20837;-75
2023/02/08 01:45:22;;;;;;;1999.90;999.90;;;;;;;;;;4953577;29;20494;-75
2023/02/08 01:48:09;;;;;;;1999.90;999.90;;;;;;;;;;4953312;29;20464;-75
2023/02/08 01:50:56;;;;;;;1999.90;999.90;;;;;;;;;;4953980;29;20816;-75
2023/02/08 01:53:41;;;;;;;1999.90;999.90;;;;;;;;;;4953914;29;20491;-75
2023/02/08 01:56:29;;;;;;;1999.90;999.90;;;;;;;;;;4954151;29;20422;-75
2023/02/08 01:59:16;;;;;;;1999.90;999.90;;;;;;;;;;4954132;29;20440;-74
2023/02/08 02:02:02;;;;;;;1999.90;999.90;;;;;;;;;;4954072;29;20419;-74
2023/02/08 02:04:47;;;;;;;1999.90;999.90;;;;;;;;;;4953881;29;21077;-75
2023/02/08 02:07:33;;;;;;;1999.90;999.90;;;;;;;;;;4953926;29;20531;-75
2023/02/08 02:10:20;;;;;;;1999.90;999.90;;;;;;;;;;4953596;29;20458;-75
2023/02/08 02:13:09;;;;;;;1999.90;999.90;;;;;;;;;;4953864;29;20422;-73
2023/02/08 02:15:54;;;;;;;1999.90;999.90;;;;;;;;;;4954087;29;20413;-75
2023/02/08 02:18:40;;;;;;;1999.90;999.90;;;;;;;;;;4953508;29;20515;-75
2023/02/08 02:21:36;;;;;;;1999.90;999.90;;;;;;;;;;4953993;29;20567;-75
2023/02/08 02:24:36;;;;;;;1999.90;999.90;;;;;;;;;;4953210;29;20439;-75
2023/02/08 02:27:40;;;;;;;1999.90;999.90;;;;;;;;;;4953988;29;20428;-73
2023/02/08 02:30:43;;;;;;;1999.90;999.90;;;;;;;;;;4949175;29;20519;-76
2023/02/08 02:33:43;;;;;;;1999.90;999.90;;;;;;;;;;4953033;29;20803;-73
2023/02/08 02:36:33;;;;;;;1999.90;999.90;;;;;;;;;;4954535;28;20495;-75
2023/02/08 02:39:20;;;;;;;1999.90;999.90;;;;;;;;;;4955794;29;20472;-75
2023/02/08 02:45:15;;;;;;;1999.90;999.90;;;;;;;;;;4957242;29;20471;-75
2023/02/08 02:48:02;;;;;;;1999.90;999.90;;;;;;;;;;4957256;29;21183;-74
2023/02/08 02:50:51;;;;;;;1999.90;999.90;;;;;;;;;;4957436;29;20960;-75
2023/02/08 02:53:40;;;;;;;1999.90;999.90;;;;;;;;;;4956663;29;20492;-75
2023/02/08 02:56:27;;;;;;;1999.90;999.90;;;;;;;;;;4938390;29;20411;-75
2023/02/08 02:59:13;;;;;;;1999.90;999.90;;;;;;;;;;4956041;29;20515;-75
2023/02/08 03:01:58;;;;;;;1999.90;999.90;;;;;;;;;;4956404;29;20416;-75
2023/02/08 03:04:54;;;;;;;1999.90;999.90;;;;;;;;;;4956673;29;20209;-75
2023/02/08 03:07:50;;;;;;;1999.90;999.90;;;;;;;;;;4956569;29;20805;-75
2023/02/08 03:10:49;;;;;;;1999.90;999.90;;;;;;;;;;4957000;29;20590;-75
2023/02/08 03:13:40;;;;;;;1999.90;999.90;;;;;;;;;;4956517;29;20582;-75
2023/02/08 03:16:31;;;;;;;1999.90;999.90;;;;;;;;;;4956966;29;20415;-75
2023/02/08 03:19:20;;;;;;;1999.90;999.90;;;;;;;;;;4937736;29;20561;-75
2023/02/08 03:22:08;;;;;;;1999.90;999.90;;;;;;;;;;4949644;29;20495;-75
2023/02/08 03:24:56;;;;;;;1999.90;999.90;;;;;;;;;;4956536;29;20446;-75
2023/02/08 03:27:47;;;;;;;1999.90;999.90;;;;;;;;;;4956635;29;20531;-74
2023/02/08 03:30:33;;;;;;;1999.90;999.90;;;;;;;;;;4956641;29;20430;-74
2023/02/08 03:33:21;;;;;;;1999.90;999.90;;;;;;;;;;4954542;29;20957;-75
2023/02/08 03:36:08;;;;;;;1999.90;999.90;;;;;;;;;;4956241;29;20963;-75
2023/02/08 03:38:54;;;;;;;1999.90;999.90;;;;;;;;;;4956743;29;20463;-75
2023/02/08 03:41:42;;;;;;;1999.90;999.90;;;;;;;;;;4956280;29;20454;-75
2023/02/08 03:44:33;;;;;;;1999.90;999.90;;;;;;;;;;4955984;29;20560;-75
2023/02/08 03:47:19;;;;;;;1999.90;999.90;;;;;;;;;;4956112;29;20505;-75
2023/02/08 03:50:07;;;;;;;1999.90;999.90;;;;;;;;;;4955368;29;20478;-75
2023/02/08 03:52:52;;;;;;;1999.90;999.90;;;;;;;;;;4956024;29;20482;-74
2023/02/08 03:55:37;;;;;;;1999.90;999.90;;;;;;;;;;4955587;29;20926;-74
2023/02/08 03:58:25;;;;;;;1999.90;999.90;;;;;;;;;;4937051;29;20560;-75
2023/02/08 04:01:13;;;;;;;1999.90;999.90;;;;;;;;;;4942988;29;20811;-75
2023/02/08 04:03:59;;;;;;;1999.90;999.90;;;;;;;;;;4955504;29;20412;-75
2023/02/08 04:06:44;;;;;;;1999.90;999.90;;;;;;;;;;4955645;29;20439;-75
2023/02/08 04:09:29;;;;;;;1999.90;999.90;;;;;;;;;;4955581;29;20479;-76
2023/02/08 04:12:14;;;;;;;1999.90;999.90;;;;;;;;;;4955678;29;20443;-75
2023/02/08 04:15:00;;;;;;;1999.90;999.90;;;;;;;;;;4955548;29;20427;-74
2023/02/08 04:17:45;;;;;;;1999.90;999.90;;;;;;;;;;4955815;29;20995;-75
2023/02/08 04:20:30;;;;;;;1999.90;999.90;;;;;;;;;;4955471;29;20514;-72
2023/02/08 04:23:15;;;;;;;1999.90;999.90;;;;;;;;;;4955632;29;20434;-75
2023/02/08 04:26:00;;;;;;;1999.90;999.90;;;;;;;;;;4955463;29;20443;-75
2023/02/08 04:28:45;;;;;;;1999.90;999.90;;;;;;;;;;4955319;29;20456;-75
2023/02/08 04:31:31;;;;;;;1999.90;999.90;;;;;;;;;;4955315;29;20484;-75
2023/02/08 04:34:16;;;;;;;1999.90;999.90;;;;;;;;;;4955218;29;20783;-75
2023/02/08 04:37:01;;;;;;;1999.90;999.90;;;;;;;;;;4954959;29;20439;-75
2023/02/08 04:39:46;;;;;;;1999.90;999.90;;;;;;;;;;4954788;29;20440;-75
2023/02/08 04:42:31;;;;;;;1999.90;999.90;;;;;;;;;;4955582;29;20414;-75
2023/02/08 04:45:16;;;;;;;1999.90;999.90;;;;;;;;;;4954592;29;20980;-75
2023/02/08 04:48:03;;;;;;;1999.90;999.90;;;;;;;;;;4955388;29;20284;-75
2023/02/08 04:50:48;;;;;;;1999.90;999.90;;;;;;;;;;4954679;29;20587;-75
2023/02/08 04:53:33;;;;;;;1999.90;999.90;;;;;;;;;;4954904;29;20480;-75
2023/02/08 04:56:18;;;;;;;1999.90;999.90;;;;;;;;;;4954808;29;20490;-75
2023/02/08 04:59:03;;;;;;;1999.90;999.90;;;;;;;;;;4955003;29;20803;-75
2023/02/08 05:01:48;;;;;;;1999.90;999.90;;;;;;;;;;4954376;29;20560;-75
2023/02/08 05:04:35;;;;;;;1999.90;999.90;;;;;;;;;;4954511;29;20443;-75
2023/02/08 05:07:19;;;;;;;1999.90;999.90;;;;;;;;;;4954930;29;20428;-75
2023/02/08 05:10:05;;;;;;;1999.90;999.90;;;;;;;;;;4954162;29;20527;-75
2023/02/08 05:12:50;;;;;;;1999.90;999.90;;;;;;;;;;4954792;29;20411;-75
2023/02/08 05:15:35;;;;;;;1999.90;999.90;;;;;;;;;;4954266;29;20577;-75
2023/02/08 05:18:20;;;;;;;1999.90;999.90;;;;;;;;;;4954850;29;20413;-75
2023/02/08 05:21:06;;;;;;;1999.90;999.90;;;;;;;;;;4954474;29;20578;-75
2023/02/08 05:23:52;;;;;;;1999.90;999.90;;;;;;;;;;4953920;29;20479;-75
2023/02/08 05:26:37;;;;;;;1999.90;999.90;;;;;;;;;;4954640;29;20515;-75
2023/02/08 05:29:22;;;;;;;1999.90;999.90;;;;;;;;;;4954091;29;20861;-75
2023/02/08 05:32:07;;;;;;;1999.90;999.90;;;;;;;;;;4954523;29;20510;-74
2023/02/08 05:34:52;;;;;;;1999.90;999.90;;;;;;;;;;4953883;29;20446;-74
2023/02/08 05:37:38;;;;;;;1999.90;999.90;;;;;;;;;;4954559;29;20498;-75
2023/02/08 05:40:23;;;;;;;1999.90;999.90;;;;;;;;;;4953974;29;20459;-74
2023/02/08 05:43:08;;;;;;;1999.90;999.90;;;;;;;;;;4954379;29;20963;-74
2023/02/08 05:45:53;;;;;;;1999.90;999.90;;;;;;;;;;4953981;29;20554;-74
2023/02/08 05:48:38;;;;;;;1999.90;999.90;;;;;;;;;;4953673;29;20571;-75
2023/02/08 05:51:23;;;;;;;1999.90;999.90;;;;;;;;;;4954210;29;20537;-76
2023/02/08 05:54:09;;;;;;;1999.90;999.90;;;;;;;;;;4953405;29;20443;-76
2023/02/08 05:56:54;;;;;;;1999.90;999.90;;;;;;;;;;4953995;29;20804;-75
2023/02/08 05:59:39;;;;;;;1999.90;999.90;;;;;;;;;;4954123;29;20462;-75
2023/02/08 06:02:24;;;;;;;1999.90;999.90;;;;;;;;;;4953792;29;20578;-75
2023/02/08 06:05:09;;;;;;;1999.90;999.90;;;;;;;;;;4953149;29;20431;-75
2023/02/08 06:07:54;;;;;;;1999.90;999.90;;;;;;;;;;4953481;29;20446;-74
2023/02/08 06:10:40;;;;;;;1999.90;999.90;;;;;;;;;;4952750;29;20526;-75
2023/02/08 06:13:25;;;;;;;1999.90;999.90;;;;;;;;;;4943394;29;20462;-74
2023/02/08 06:16:10;;;;;;;1999.90;999.90;;;;;;;;;;4953996;29;20424;-75
2023/02/08 06:18:55;;;;;;;1999.90;999.90;;;;;;;;;;4934859;29;20412;-75
2023/02/08 06:21:41;;;;;;;1999.90;999.90;;;;;;;;;;4934734;29;20544;-75
2023/02/08 06:24:26;;;;;;;1999.90;999.90;;;;;;;;;;4934375;29;20416;-73
2023/02/08 06:27:12;;;;;;;1999.90;999.90;;;;;;;;;;4934810;29;20416;-76
2023/02/08 06:29:57;;;;;;;1999.90;999.90;;;;;;;;;;4944454;29;20445;-75
2023/02/08 06:32:42;;;;;;;1999.90;999.90;;;;;;;;;;4953448;29;20299;-74
2023/02/08 06:35:27;;;;;;;1999.90;999.90;;;;;;;;;;4953647;29;20431;-75
2023/02/08 06:38:12;;;;;;;1999.90;999.90;;;;;;;;;;4952387;29;20514;-72
2023/02/08 06:40:57;;;;;;;1999.90;999.90;;;;;;;;;;4952556;29;20494;-75
2023/02/08 06:43:44;;;;;;;1999.90;999.90;;;;;;;;;;4952013;29;20423;-74
2023/02/08 06:46:29;;;;;;;1999.90;999.90;;;;;;;;;;4951889;29;20434;-75
2023/02/08 06:49:13;;;;;;;1999.90;999.90;;;;;;;;;;4953008;29;20591;-74
2023/02/08 06:51:58;;;;;;;1999.90;999.90;;;;;;;;;;4953022;29;20427;-75
2023/02/08 06:54:43;;;;;;;1999.90;999.90;;;;;;;;;;4949684;29;20510;-76
2023/02/08 06:57:28;;;;;;;1999.90;999.90;;;;;;;;;;4951119;29;20463;-75
2023/02/08 07:00:15;;;;;;;1999.90;999.90;;;;;;;;;;4952719;29;20479;-73
2023/02/08 07:03:00;;;;;;;1999.90;999.90;;;;;;;;;;4952788;29;20784;-74
2023/02/08 07:05:45;;;;;;;1999.90;999.90;;;;;;;;;;4953119;29;20780;-74
2023/02/08 07:08:30;;;;;;;1999.90;999.90;;;;;;;;;;4952984;29;20803;-75
2023/02/08 07:11:16;;;;;;;1999.90;999.90;;;;;;;;;;4949836;29;21011;-75
2023/02/08 07:14:01;;;;;;;1999.90;999.90;;;;;;;;;;4951508;29;20419;-73
2023/02/08 07:16:47;;;;;;;1999.90;999.90;;;;;;;;;;4953391;29;20563;-75
2023/02/08 07:19:32;;;;;;;1999.90;999.90;;;;;;;;;;4952852;29;20438;-73
2023/02/08 07:22:17;;;;;;;1999.90;999.90;;;;;;;;;;4950783;29;20430;-74
2023/02/08 07:25:02;;;;;;;1999.90;999.90;;;;;;;;;;4955204;29;20472;-75
2023/02/08 07:27:47;;;;;;;1999.90;999.90;;;;;;;;;;4952817;29;20910;-71
2023/02/08 07:30:32;;;;;;;1999.90;999.90;;;;;;;;;;4956540;29;20557;-72
2023/02/08 07:33:18;;;;;;;1999.90;999.90;;;;;;;;;;4962715;28;20418;-74
2023/02/08 07:36:04;;;;;;;1999.90;999.90;;;;;;;;;;4963161;28;20428;-76
2023/02/08 07:38:49;;;;;;;1999.90;999.90;;;;;;;;;;4952608;29;20428;-74
2023/02/08 07:41:34;;;;;;;1999.90;999.90;;;;;;;;;;4953531;29;20411;-75
2023/02/08 07:44:18;;;;;;;1999.90;999.90;;;;;;;;;;4955806;29;20912;-75
2023/02/08 07:47:04;;;;;;;1999.90;999.90;;;;;;;;;;4953763;29;20419;-74
2023/02/08 07:49:50;;;;;;;1999.90;999.90;;;;;;;;;;4955587;29;20486;-73
2023/02/08 07:52:35;;;;;;;1999.90;999.90;;;;;;;;;;4955852;29;21051;-75
2023/02/08 07:55:20;;;;;;;1999.90;999.90;;;;;;;;;;4955614;29;20951;-75
2023/02/08 07:58:05;;;;;;;1999.90;999.90;;;;;;;;;;4954002;29;20434;-75
2023/02/08 08:00:50;;;;;;;1999.90;999.90;;;;;;;;;;4955574;29;20443;-75
2023/02/08 08:03:35;;;;;;;1999.90;999.90;;;;;;;;;;4955312;29;20431;-75
2023/02/08 08:06:22;;;;;;;1999.90;999.90;;;;;;;;;;4955558;29;20423;-75
2023/02/08 08:09:07;;;;;;;1999.90;999.90;;;;;;;;;;4954742;29;20573;-75
2023/02/08 08:11:52;;;;;;;1999.90;999.90;;;;;;;;;;4955421;29;20423;-74
2023/02/08 08:14:37;;;;;;;1999.90;999.90;;;;;;;;;;4951983;29;20932;-75
2023/02/08 08:17:22;;;;;;;1999.90;999.90;;;;;;;;;;4953440;29;20560;-75
2023/02/08 08:20:07;;;;;;;1999.90;999.90;;;;;;;;;;4955200;29;20447;-73
2023/02/08 08:22:53;;;;;;;1999.90;999.90;;;;;;;;;;4943586;28;20514;-74
2023/02/08 08:25:38;;;;;;;1999.90;999.90;;;;;;;;;;4944984;29;20531;-75
2023/02/08 08:28:23;;;;;;;1999.90;999.90;;;;;;;;;;4944396;29;20570;-73
2023/02/08 08:31:10;;;;;;;1999.90;999.90;;;;;;;;;;4942953;29;21030;-74
2023/02/08 08:33:55;;;;;;;1999.90;999.90;;;;;;;;;;4944910;29;20468;-75
2023/02/08 08:36:40;;;;;;;1999.90;999.90;;;;;;;;;;4943640;29;20472;-75
2023/02/08 08:39:27;;;;;;;1999.90;999.90;;;;;;;;;;4942965;28;20454;-75
2023/02/08 08:42:12;;;;;;;1999.90;999.90;;;;;;;;;;4946444;29;20539;-75
2023/02/08 08:44:57;;;;;;;1999.90;999.90;;;;;;;;;;4937136;29;20962;-72
2023/02/08 08:47:42;;;;;;;1999.90;999.90;;;;;;;;;;4948667;29;20518;-74
2023/02/08 08:50:26;;;;;;;1999.90;999.90;;;;;;;;;;4950314;29;20467;-74
2023/02/08 08:53:11;;;;;;;1999.90;999.90;;;;;;;;;;4951558;29;20429;-73
2023/02/08 08:55:58;;;;;;;1999.90;999.90;;;;;;;;;;4947398;28;20453;-72
2023/02/08 08:58:43;;;;;;;1999.90;999.90;;;;;;;;;;4948898;29;20434;-72
2023/02/08 09:01:28;;;;;;;1999.90;999.90;;;;;;;;;;4938479;29;20490;-74
2023/02/08 09:04:13;;;;;;;1999.90;999.90;;;;;;;;;;4941354;29;20433;-73
2023/02/08 09:06:58;;;;;;;1999.90;999.90;;;;;;;;;;4945652;29;20423;-74
2023/02/08 09:09:46;;;;;;;1999.90;999.90;;;;;;;;;;4946427;29;20984;-74
2023/02/08 09:12:32;;;;;;;1999.90;999.90;;;;;;;;;;4944228;29;20958;-75
2023/02/08 09:15:17;;;;;;;1999.90;999.90;;;;;;;;;;4943839;29;20425;-75
2023/02/08 09:18:02;;;;;;;1999.90;999.90;;;;;;;;;;4940894;29;20500;-75
2023/02/08 09:20:47;;;;;;;1999.90;999.90;;;;;;;;;;4945308;29;20417;-75
2023/02/08 09:23:32;;;;;;;1999.90;999.90;;;;;;;;;;4936062;29;20448;-74
2023/02/08 09:26:18;;;;;;;1999.90;999.90;;;;;;;;;;4942543;29;20437;-74
2023/02/08 09:29:05;;;;;;;1999.90;999.90;;;;;;;;;;4940308;29;20450;-75
2023/02/08 09:31:50;;;;;;;1999.90;999.90;;;;;;;;;;4950960;29;20464;-75
2023/02/08 09:34:35;;;;;;;1999.90;999.90;;;;;;;;;;4934342;29;20427;-77
2023/02/08 09:37:20;;;;;;;1999.90;999.90;;;;;;;;;;4937695;29;20983;-75
2023/02/08 09:40:05;;;;;;;1999.90;999.90;;;;;;;;;;4935666;29;20661;-75
2023/02/08 09:42:54;;;;;;;1999.90;999.90;;;;;;;;;;4943106;29;20429;-74
2023/02/08 09:45:43;;;;;;;1999.90;999.90;;;;;;;;;;4951089;28;20307;-76
2023/02/08 09:48:31;;;;;;;1999.90;999.90;;;;;;;;;;4945974;29;20214;-77
2023/02/08 09:51:22;;;;;;;1999.90;999.90;;;;;;;;;;4935832;29;21056;-75
2023/02/08 09:54:08;;;;;;;1999.90;999.90;;;;;;;;;;4950899;29;20425;-75
2023/02/08 09:56:54;;;;;;;1999.90;999.90;;;;;;;;;;4936083;29;20956;-74
2023/02/08 09:59:40;;;;;;;1999.90;999.90;;;;;;;;;;4941299;29;20427;-73
2023/02/08 10:02:28;;;;;;;1999.90;999.90;;;;;;;;;;4944322;29;20431;-73
2023/02/08 10:05:14;;;;;;;1999.90;999.90;;;;;;;;;;4944267;29;20424;-74
2023/02/08 10:08:00;;;;;;;1999.90;999.90;;;;;;;;;;4941480;29;20215;-72
2023/02/08 10:10:51;;;;;;;1999.90;999.90;;;;;;;;;;4944016;29;20466;-72
2023/02/08 10:13:42;;;;;;;1999.90;999.90;;;;;;;;;;4941559;29;20711;-72
2023/02/08 10:16:37;;;;;;;1999.90;999.90;;;;;;;;;;4941142;29;20253;-72
2023/02/08 10:19:30;;;;;;;1999.90;999.90;;;;;;;;;;4941233;29;20358;-72
2023/02/08 10:22:22;;;;;;;1999.90;999.90;;;;;;;;;;4944442;29;20708;-72
2023/02/08 10:25:25;;;;;;;1999.90;999.90;;;;;;;;;;4940441;29;20212;-72
2023/02/08 10:28:20;;;;;;;1999.90;999.90;;;;;;;;;;4945172;29;20459;-72
2023/02/08 10:31:11;;;;;;;1999.90;999.90;;;;;;;;;;4939901;29;20217;-72
2023/02/08 10:34:01;;;;;;;1999.90;999.90;;;;;;;;;;4946346;29;20245;-72
2023/02/08 10:36:47;;;;;;;1999.90;999.90;;;;;;;;;;4943681;29;20209;-71
2023/02/08 10:39:33;;;;;;;1999.90;999.90;;;;;;;;;;4944595;29;20229;-73
2023/02/08 10:42:21;;;;;;;1999.90;999.90;;;;;;;;;;4935005;29;20206;-72
2023/02/08 10:45:15;;;;;;;1999.90;999.90;;;;;;;;;;4941481;29;20571;-74
2023/02/08 10:48:01;;;;;;;1999.90;999.90;;;;;;;;;;4949703;29;20208;-72
2023/02/08 10:50:47;;;;;;;1999.90;999.90;;;;;;;;;;4942383;29;20217;-72
2023/02/08 10:53:33;;;;;;;1999.90;999.90;;;;;;;;;;4932955;29;20213;-74
2023/02/08 10:56:26;;;;;;;1999.90;999.90;;;;;;;;;;4939329;29;20430;-74
2023/02/08 10:59:15;;;;;;;1999.90;999.90;;;;;;;;;;4943519;28;20737;-74
2023/02/08 11:02:01;;;;;;;1999.90;999.90;;;;;;;;;;4943835;29;20217;-73
2023/02/08 11:04:57;;;;;;;1999.90;999.90;;;;;;;;;;4943325;29;20216;-73
2023/02/08 11:07:42;;;;;;;1999.90;999.90;;;;;;;;;;4950292;29;20291;-73
2023/02/08 11:10:29;;;;;;;1999.90;999.90;;;;;;;;;;4956311;29;20236;-73
2023/02/08 11:13:18;;;;;;;1999.90;999.90;;;;;;;;;;4956755;29;20227;-73
2023/02/08 11:16:04;;;;;;;1999.90;999.90;;;;;;;;;;4956162;29;20208;-73
2023/02/08 11:18:51;;;;;;;1999.90;999.90;;;;;;;;;;4937958;29;20217;-73
2023/02/08 11:21:37;;;;;;;1999.90;999.90;;;;;;;;;;4949783;29;20211;-73
2023/02/08 11:24:26;;;;;;;1999.90;999.90;;;;;;;;;;4956444;29;20205;-73
2023/02/08 11:27:17;;;;;;;1999.90;999.90;;;;;;;;;;4956603;29;20733;-73
2023/02/08 11:30:19;;;;;;;1999.90;999.90;;;;;;;;;;4956253;29;20228;-73
2023/02/08 11:33:17;;;;;;;1999.90;999.90;;;;;;;;;;4956908;29;20204;-73
2023/02/08 11:36:06;;;;;;;1999.90;999.90;;;;;;;;;;4956407;29;20320;-73
2023/02/08 11:38:51;;;;;;;1999.90;999.90;;;;;;;;;;4956115;29;20212;-73
2023/02/08 11:41:36;;;;;;;1999.90;999.90;;;;;;;;;;4955988;29;20204;-73
2023/02/08 11:44:23;;;;;;;1999.90;999.90;;;;;;;;;;4955508;29;20235;-75
2023/02/08 11:47:09;;;;;;;1999.90;999.90;;;;;;;;;;4956260;29;20288;-74
2023/02/08 11:49:56;;;;;;;1999.90;999.90;;;;;;;;;;4956249;29;20232;-75
2023/02/08 11:52:42;;;;;;;1999.90;999.90;;;;;;;;;;4955833;29;20231;-73
2023/02/08 11:55:29;;;;;;;1999.90;999.90;;;;;;;;;;4949183;28;20220;-73
2023/02/08 11:58:18;;;;;;;1999.90;999.90;;;;;;;;;;4952736;28;20706;-73
2023/02/08 12:01:06;;;;;;;1999.90;999.90;;;;;;;;;;4942738;29;20202;-73
2023/02/08 12:03:51;;;;;;;1999.90;999.90;;;;;;;;;;4947934;29;20205;-73
2023/02/08 12:06:43;;;;;;;1999.90;999.90;;;;;;;;;;4939422;29;20209;-73
2023/02/08 12:09:36;;;;;;;1999.90;999.90;;;;;;;;;;4943858;28;20260;-72
2023/02/08 12:12:25;;;;;;;1999.90;999.90;;;;;;;;;;4946895;29;20297;-73
2023/02/08 12:15:16;;;;;;;1999.90;999.90;;;;;;;;;;4943784;29;20590;-74
2023/02/08 12:18:19;;;;;;;1999.90;999.90;;;;;;;;;;4946903;29;20212;-75
2023/02/08 12:21:05;;;;;;;1999.90;999.90;;;;;;;;;;4948277;29;20337;-74
2023/02/08 12:23:53;;;;;;;1999.90;999.90;;;;;;;;;;4942493;29;20208;-74
2023/02/08 12:26:48;;;;;;;1999.90;999.90;;;;;;;;;;4935558;29;20225;-74
2023/02/08 12:29:41;;;;;;;1999.90;999.90;;;;;;;;;;4944953;29;20278;-74
2023/02/08 12:32:34;;;;;;;1999.90;999.90;;;;;;;;;;4945154;29;20229;-73
2023/02/08 12:35:45;;;;;;;1999.90;999.90;;;;;;;;;;4943558;29;20205;-73
2023/02/08 12:41:56;;;;;;;1999.90;999.90;;;;;;;;;;4948706;29;20241;-73
2023/02/08 12:44:48;;;;;;;1999.90;999.90;;;;;;;;;;4945334;29;20202;-73
2023/02/08 12:47:46;;;;;;;1999.90;999.90;;;;;;;;;;4940761;29;20213;-73
2023/02/08 12:50:33;;;;;;;1999.90;999.90;;;;;;;;;;4941734;29;20224;-73
2023/02/08 12:53:24;;;;;;;1999.90;999.90;;;;;;;;;;4946324;29;20209;-73
2023/02/08 12:56:13;;;;;;;1999.90;999.90;;;;;;;;;;4948739;29;20197;-73
2023/02/08 12:59:00;;;;;;;1999.90;999.90;;;;;;;;;;4942861;29;20791;-73
2023/02/08 13:01:46;;;;;;;1999.90;999.90;;;;;;;;;;4948732;29;20208;-73
2023/02/08 13:04:33;;;;;;;1999.90;999.90;;;;;;;;;;4937586;29;20210;-72
2023/02/08 13:07:20;;;;;;;1999.90;999.90;;;;;;;;;;4940549;29;20218;-72
2023/02/08 13:10:11;;;;;;;1999.90;999.90;;;;;;;;;;4941663;29;20241;-72
2023/02/08 13:12:58;;;;;;;1999.90;999.90;;;;;;;;;;4934516;29;20729;-73
2023/02/08 13:15:44;;;;;;;1999.90;999.90;;;;;;;;;;4934551;29;20622;-73
2023/02/08 13:18:30;;;;;;;1999.90;999.90;;;;;;;;;;4934687;29;20767;-73
2023/02/08 13:21:19;;;;;;;1999.90;999.90;;;;;;;;;;4950535;29;20706;-73
2023/02/08 13:24:06;;;;;;;1999.90;999.90;;;;;;;;;;4950919;29;20836;-73
2023/02/08 13:26:52;;;;;;;1999.90;999.90;;;;;;;;;;4951844;29;20228;-73
2023/02/08 13:29:37;;;;;;;1999.90;999.90;;;;;;;;;;4937677;29;20318;-73
2023/02/08 13:32:28;;;;;;;1999.90;999.90;;;;;;;;;;4937362;29;20316;-73
2023/02/08 13:35:15;;;;;;;1999.90;999.90;;;;;;;;;;4948765;29;20280;-73
2023/02/08 13:38:02;;;;;;;1999.90;999.90;;;;;;;;;;4947547;29;20213;-73
2023/02/08 13:40:47;;;;;;;1999.90;999.90;;;;;;;;;;4950851;29;20818;-73
2023/02/08 13:43:37;;;;;;;1999.90;999.90;;;;;;;;;;4940362;29;20261;-73
2023/02/08 13:46:22;;;;;;;1999.90;999.90;;;;;;;;;;4942291;29;20211;-72
2023/02/08 13:49:29;;;;;;;1999.90;999.90;;;;;;;;;;4938651;28;20230;-72
2023/02/08 13:52:36;;;;;;;1999.90;999.90;;;;;;;;;;4940614;29;20216;-70
2023/02/08 13:55:52;;;;;;;1999.90;999.90;;;;;;;;;;4937226;29;20213;-73
2023/02/08 13:58:38;;;;;;;1999.90;999.90;;;;;;;;;;4937932;29;20206;-72
2023/02/08 14:01:26;;;;;;;1999.90;999.90;;;;;;;;;;4944886;29;20214;-72
2023/02/08 14:04:27;;;;;;;1999.90;999.90;;;;;;;;;;4948977;29;20707;-73
2023/02/08 14:07:15;;;;;;;1999.90;999.90;;;;;;;;;;4949774;29;20213;-73
2023/02/08 14:10:06;;;;;;;1999.90;999.90;;;;;;;;;;4950691;29;20624;-73
2023/02/08 14:12:56;;;;;;;1999.90;999.90;;;;;;;;;;4942075;29;20222;-73
2023/02/08 14:15:42;;;;;;;1999.90;999.90;;;;;;;;;;4950541;29;20201;-74
2023/02/08 14:18:28;;;;;;;1999.90;999.90;;;;;;;;;;4938434;29;20202;-72
2023/02/08 14:21:30;;;;;;;1999.90;999.90;;;;;;;;;;4936217;29;20354;-73
2023/02/08 14:24:20;;;;;;;1999.90;999.90;;;;;;;;;;4933452;29;20927;-74
2023/02/08 14:27:06;;;;;;;1999.90;999.90;;;;;;;;;;4933635;29;20212;-71
2023/02/08 14:29:56;;;;;;;1999.90;999.90;;;;;;;;;;4946085;29;20224;-72
2023/02/08 14:32:43;;;;;;;1999.90;999.90;;;;;;;;;;4948925;28;20229;-72
2023/02/08 14:35:30;;;;;;;1999.90;999.90;;;;;;;;;;4952831;29;20496;-72
2023/02/08 14:38:45;;;;;;;1999.90;999.90;;;;;;;;;;4937543;29;20328;-73
2023/02/08 14:41:44;;;;;;;1999.90;999.90;;;;;;;;;;4891159;29;20765;-73
2023/02/08 14:44:53;;;;;;;1999.90;999.90;;;;;;;;;;4946960;29;20279;-74
2023/02/08 14:47:59;;;;;;;1999.90;999.90;;;;;;;;;;4948917;29;20206;-73
2023/02/08 14:50:55;;;;;;;1999.90;999.90;;;;;;;;;;4948319;29;20221;-74
2023/02/08 14:53:43;;;;;;;1999.90;999.90;;;;;;;;;;4944194;29;20213;-73
2023/02/08 14:56:30;;;;;;;1999.90;999.90;;;;;;;;;;4943261;29;20217;-73
2023/02/08 14:59:17;;;;;;;1999.90;999.90;;;;;;;;;;4946345;29;20754;-73
2023/02/08 15:02:04;;;;;;;1999.90;999.90;;;;;;;;;;4948115;29;20213;-73
2023/02/08 15:04:49;;;;;;;1999.90;999.90;;;;;;;;;;4947449;29;20293;-73
2023/02/08 15:07:38;;;;;;;1999.90;999.90;;;;;;;;;;4948555;29;20328;-72
2023/02/08 15:10:24;;;;;;;1999.90;999.90;;;;;;;;;;4945281;29;20238;-73
2023/02/08 15:13:17;;;;;;;1999.90;999.90;;;;;;;;;;4944735;29;21058;-73
2023/02/08 15:16:02;;;;;;;1999.90;999.90;;;;;;;;;;4947428;29;20274;-72
2023/02/08 15:18:47;;;;;;;1999.90;999.90;;;;;;;;;;4946707;29;20212;-73
2023/02/08 15:21:35;;;;;;;1999.90;999.90;;;;;;;;;;4945031;29;20262;-73
2023/02/08 15:24:22;;;;;;;1999.90;999.90;;;;;;;;;;4946449;29;20721;-73
2023/02/08 15:27:18;;;;;;;1999.90;999.90;;;;;;;;;;4948001;29;20730;-72
2023/02/08 15:30:03;;;;;;;1999.90;999.90;;;;;;;;;;4945178;29;21275;-72
2023/02/08 15:32:48;;;;;;;1999.90;999.90;;;;;;;;;;4944048;29;20245;-73
2023/02/08 15:35:35;;;;;;;1999.90;999.90;;;;;;;;;;4944748;29;20301;-72
2023/02/08 15:38:21;;;;;;;1999.90;999.90;;;;;;;;;;4945822;29;20718;-72
2023/02/08 15:41:09;;;;;;;1999.90;999.90;;;;;;;;;;4946950;29;20207;-72